createdAt,value
2023-02-19T00:00:41.004Z,9.91
2023-02-19T00:01:41.031Z,9.92
2023-02-19T00:02:41.003Z,9.93
2023-02-19T00:03:41.157Z,9.93
2023-02-19T00:04:41.098Z,9.92
2023-02-19T00:05:41.013Z,9.9
2023-02-19T00:06:41.004Z,9.89
2023-02-19T00:07:41.008Z,9.87
2023-02-19T00:08:41.000Z,9.86
2023-02-19T00:09:41.010Z,9.86
2023-02-19T00:10:41.004Z,9.82
2023-02-19T00:11:41.013Z,9.79
2023-02-19T00:12:41.004Z,9.76
2023-02-19T00:13:41.009Z,9.71
2023-02-19T00:14:41.010Z,9.71
2023-02-19T00:15:41.016Z,9.7
2023-02-19T00:16:41.004Z,9.65
2023-02-19T00:17:41.004Z,9.65
2023-02-19T00:18:41.014Z,9.64
2023-02-19T00:19:41.008Z,9.61
2023-02-19T00:20:41.007Z,9.61
2023-02-19T00:21:40.999Z,9.6
2023-02-19T00:22:41.001Z,9.59
2023-02-19T00:23:41.017Z,9.6
2023-02-19T00:24:41.003Z,9.58
2023-02-19T00:25:41.012Z,9.57
2023-02-19T00:26:41.011Z,9.57
2023-02-19T00:27:41.008Z,9.56
2023-02-19T00:28:41.010Z,9.57
2023-02-19T00:29:41.009Z,9.57
2023-02-19T00:30:41.079Z,9.57
2023-02-19T00:31:41.057Z,9.58
2023-02-19T00:32:41.014Z,9.59
2023-02-19T00:33:41.044Z,9.61
2023-02-19T00:34:41.004Z,9.62
2023-02-19T00:35:41.009Z,9.63
2023-02-19T00:36:41.019Z,9.63
2023-02-19T00:37:41.011Z,9.68
2023-02-19T00:38:41.008Z,9.68
2023-02-19T00:39:41.027Z,9.69
2023-02-19T00:40:41.014Z,9.7
2023-02-19T00:41:41.007Z,9.71
2023-02-19T00:42:41.009Z,9.71
2023-02-19T00:43:41.008Z,9.69
2023-02-19T00:44:41.062Z,9.69
2023-02-19T00:45:41.014Z,9.69
2023-02-19T00:46:41.070Z,9.69
2023-02-19T00:47:41.002Z,9.7
2023-02-19T00:48:41.006Z,9.7
2023-02-19T00:49:40.998Z,9.73
2023-02-19T00:50:41.004Z,9.72
2023-02-19T00:51:41.004Z,9.71
2023-02-19T00:52:41.014Z,9.75
2023-02-19T00:53:41.007Z,9.76
2023-02-19T00:54:41.045Z,9.79
2023-02-19T00:55:41.020Z,9.82
2023-02-19T00:56:41.270Z,9.85
2023-02-19T00:57:41.019Z,9.85
2023-02-19T00:58:41.109Z,9.87
2023-02-19T00:59:41.122Z,9.88
2023-02-19T01:00:41.011Z,9.88
2023-02-19T01:01:41.077Z,9.87
2023-02-19T01:02:41.025Z,9.88
2023-02-19T01:03:41.018Z,9.89
2023-02-19T01:04:41.056Z,9.95
2023-02-19T01:05:41.008Z,9.98
2023-02-19T01:06:41.002Z,9.96
2023-02-19T01:07:40.997Z,9.97
2023-02-19T01:08:41.227Z,9.98
2023-02-19T01:09:41.472Z,9.98
2023-02-19T01:10:40.660Z,10
2023-02-19T01:11:40.908Z,9.99
2023-02-19T01:12:42.030Z,9.99
2023-02-19T01:13:41.551Z,9.99
2023-02-19T01:14:41.184Z,10
2023-02-19T01:15:41.464Z,9.99
2023-02-19T01:16:41.252Z,9.99
2023-02-19T01:17:41.564Z,10.02
2023-02-19T01:18:41.086Z,10.03
2023-02-19T01:19:41.275Z,10.02
2023-02-19T01:20:41.100Z,10.02
2023-02-19T01:21:41.304Z,10
2023-02-19T01:22:41.016Z,10
2023-02-19T01:23:41.152Z,10
2023-02-19T01:24:41.010Z,10.01
2023-02-19T01:25:41.168Z,10.03
2023-02-19T01:26:41.334Z,10.06
2023-02-19T01:27:41.665Z,10.05
2023-02-19T01:28:41.016Z,10.04
2023-02-19T01:29:41.260Z,10.04
2023-02-19T01:30:41.017Z,10.05
2023-02-19T01:31:41.334Z,10.05
2023-02-19T01:32:41.052Z,10.06
2023-02-19T01:33:41.006Z,10.07
2023-02-19T01:34:40.999Z,10.07
2023-02-19T01:35:41.002Z,10.05
2023-02-19T01:36:41.002Z,10.04
2023-02-19T01:37:41.071Z,10.05
2023-02-19T01:38:41.014Z,10.09
2023-02-19T01:39:41.051Z,10.07
2023-02-19T01:40:41.010Z,10.07
2023-02-19T01:41:41.004Z,10.06
2023-02-19T01:42:41.017Z,10.05
2023-02-19T01:43:40.991Z,10.03
2023-02-19T01:44:41.006Z,10.03
2023-02-19T01:45:41.018Z,10.02
2023-02-19T01:46:41.023Z,10.02
2023-02-19T01:47:41.026Z,10.02
2023-02-19T01:48:41.006Z,10.01
2023-02-19T01:49:41.006Z,9.98
2023-02-19T01:50:41.007Z,9.94
2023-02-19T01:51:41.008Z,9.93
2023-02-19T01:52:41.019Z,9.88
2023-02-19T01:53:41.005Z,9.89
2023-02-19T01:54:41.005Z,9.86
2023-02-19T01:55:41.006Z,9.86
2023-02-19T01:56:41.226Z,9.86
2023-02-19T01:57:41.000Z,9.84
2023-02-19T01:58:41.008Z,9.82
2023-02-19T01:59:41.047Z,9.8
2023-02-19T02:00:41.286Z,9.8
2023-02-19T02:01:41.085Z,9.8
2023-02-19T02:02:41.018Z,9.77
2023-02-19T02:03:41.005Z,9.76
2023-02-19T02:04:41.017Z,9.76
2023-02-19T02:05:41.012Z,9.74
2023-02-19T02:06:41.011Z,9.73
2023-02-19T02:07:41.028Z,9.73
2023-02-19T02:08:41.012Z,9.72
2023-02-19T02:09:41.020Z,9.71
2023-02-19T02:10:41.010Z,9.68
2023-02-19T02:11:41.004Z,9.66
2023-02-19T02:12:41.011Z,9.67
2023-02-19T02:13:41.002Z,9.7
2023-02-19T02:14:41.014Z,9.7
2023-02-19T02:15:41.005Z,9.71
2023-02-19T02:16:41.023Z,9.7
2023-02-19T02:17:41.019Z,9.71
2023-02-19T02:18:41.013Z,9.7
2023-02-19T02:19:41.012Z,9.71
2023-02-19T02:20:41.006Z,9.7
2023-02-19T02:21:41.010Z,9.69
2023-02-19T02:22:41.023Z,9.68
2023-02-19T02:23:41.011Z,9.68
2023-02-19T02:24:41.021Z,9.67
2023-02-19T02:25:41.022Z,9.66
2023-02-19T02:26:41.006Z,9.65
2023-02-19T02:27:41.025Z,9.65
2023-02-19T02:28:41.006Z,9.67
2023-02-19T02:29:41.016Z,9.68
2023-02-19T02:30:41.014Z,9.67
2023-02-19T02:31:41.089Z,9.65
2023-02-19T02:32:41.035Z,9.63
2023-02-19T02:33:41.008Z,9.63
2023-02-19T02:34:41.019Z,9.58
2023-02-19T02:35:41.013Z,9.56
2023-02-19T02:36:41.021Z,9.55
2023-02-19T02:37:41.123Z,9.53
2023-02-19T02:38:41.024Z,9.54
2023-02-19T02:39:41.016Z,9.53
2023-02-19T02:40:41.011Z,9.51
2023-02-19T02:41:41.013Z,9.51
2023-02-19T02:42:41.023Z,9.49
2023-02-19T02:43:41.020Z,9.48
2023-02-19T02:44:41.055Z,9.47
2023-02-19T02:45:41.090Z,9.46
2023-02-19T02:46:41.012Z,9.44
2023-02-19T02:47:41.041Z,9.43
2023-02-19T02:48:41.039Z,9.43
2023-02-19T02:49:41.018Z,9.42
2023-02-19T02:50:41.009Z,9.4
2023-02-19T02:51:41.170Z,9.39
2023-02-19T02:52:41.037Z,9.41
2023-02-19T02:53:41.013Z,9.42
2023-02-19T02:54:41.008Z,9.4
2023-02-19T02:55:41.013Z,9.4
2023-02-19T02:56:41.026Z,9.39
2023-02-19T02:57:41.002Z,9.4
2023-02-19T02:58:41.017Z,9.4
2023-02-19T02:59:41.003Z,9.41
2023-02-19T03:00:41.012Z,9.41
2023-02-19T03:01:41.010Z,9.41
2023-02-19T03:02:40.999Z,9.4
2023-02-19T03:03:41.004Z,9.36
2023-02-19T03:04:41.107Z,9.38
2023-02-19T03:05:41.107Z,9.38
2023-02-19T03:06:41.019Z,9.41
2023-02-19T03:07:41.011Z,9.41
2023-02-19T03:08:41.004Z,9.41
2023-02-19T03:09:40.998Z,9.42
2023-02-19T03:10:41.030Z,9.44
2023-02-19T03:11:41.004Z,9.42
2023-02-19T03:12:41.262Z,9.42
2023-02-19T03:13:41.018Z,9.42
2023-02-19T03:14:41.006Z,9.4
2023-02-19T03:15:41.086Z,9.41
2023-02-19T03:16:42.965Z,9.4
2023-02-19T03:17:41.008Z,9.38
2023-02-19T03:18:41.008Z,9.39
2023-02-19T03:19:41.059Z,9.37
2023-02-19T03:20:41.270Z,9.35
2023-02-19T03:21:41.006Z,9.36
2023-02-19T03:22:41.000Z,9.35
2023-02-19T03:23:41.002Z,9.34
2023-02-19T03:24:41.007Z,9.34
2023-02-19T03:25:41.031Z,9.34
2023-02-19T03:26:41.007Z,9.33
2023-02-19T03:27:40.998Z,9.31
2023-02-19T03:28:41.013Z,9.31
2023-02-19T03:29:41.022Z,9.29
2023-02-19T03:30:41.022Z,9.28
2023-02-19T03:31:41.089Z,9.28
2023-02-19T03:32:41.002Z,9.26
2023-02-19T03:33:41.012Z,9.25
2023-02-19T03:34:41.015Z,9.26
2023-02-19T03:35:41.059Z,9.26
2023-02-19T03:36:41.014Z,9.26
2023-02-19T03:37:41.012Z,9.26
2023-02-19T03:38:41.003Z,9.27
2023-02-19T03:39:41.005Z,9.26
2023-02-19T03:40:41.028Z,9.25
2023-02-19T03:41:41.005Z,9.26
2023-02-19T03:42:41.027Z,9.25
2023-02-19T03:43:41.020Z,9.25
2023-02-19T03:44:41.008Z,9.25
2023-02-19T03:45:41.043Z,9.24
2023-02-19T03:46:41.106Z,9.23
2023-02-19T03:47:40.998Z,9.24
2023-02-19T03:48:41.008Z,9.22
2023-02-19T03:49:41.018Z,9.2
2023-02-19T03:50:41.041Z,9.2
2023-02-19T03:51:41.000Z,9.19
2023-02-19T03:52:41.000Z,9.18
2023-02-19T03:53:41.003Z,9.17
2023-02-19T03:54:41.007Z,9.17
2023-02-19T03:55:41.034Z,9.18
2023-02-19T03:56:41.016Z,9.18
2023-02-19T03:57:41.029Z,9.19
2023-02-19T03:58:41.007Z,9.18
2023-02-19T03:59:41.023Z,9.2
2023-02-19T04:00:41.112Z,9.2
2023-02-19T04:01:41.010Z,9.2
2023-02-19T04:02:41.025Z,9.2
2023-02-19T04:03:41.015Z,9.22
2023-02-19T04:04:41.032Z,9.21
2023-02-19T04:05:41.008Z,9.2
2023-02-19T04:06:41.003Z,9.21
2023-02-19T04:07:41.013Z,9.21
2023-02-19T04:08:41.007Z,9.21
2023-02-19T04:09:41.033Z,9.21
2023-02-19T04:10:41.017Z,9.22
2023-02-19T04:11:41.025Z,9.23
2023-02-19T04:12:41.020Z,9.23
2023-02-19T04:13:41.012Z,9.24
2023-02-19T04:14:41.113Z,9.23
2023-02-19T04:15:41.008Z,9.24
2023-02-19T04:16:41.072Z,9.26
2023-02-19T04:17:41.010Z,9.25
2023-02-19T04:18:41.029Z,9.25
2023-02-19T04:19:41.003Z,9.25
2023-02-19T04:20:41.019Z,9.25
2023-02-19T04:21:41.012Z,9.23
2023-02-19T04:22:41.004Z,9.22
2023-02-19T04:23:41.020Z,9.2
2023-02-19T04:24:41.006Z,9.21
2023-02-19T04:25:41.005Z,9.2
2023-02-19T04:26:41.017Z,9.2
2023-02-19T04:27:41.076Z,9.2
2023-02-19T04:28:41.020Z,9.18
2023-02-19T04:29:41.017Z,9.2
2023-02-19T04:30:41.152Z,9.17
2023-02-19T04:31:41.203Z,9.15
2023-02-19T04:32:41.014Z,9.12
2023-02-19T04:33:41.010Z,9.06
2023-02-19T04:34:41.012Z,9.04
2023-02-19T04:35:41.015Z,9.01
2023-02-19T04:36:41.011Z,8.98
2023-02-19T04:37:41.019Z,8.98
2023-02-19T04:38:41.013Z,8.98
2023-02-19T04:39:41.003Z,8.98
2023-02-19T04:40:41.114Z,8.98
2023-02-19T04:41:41.536Z,8.98
2023-02-19T04:42:41.581Z,8.99
2023-02-19T04:43:40.718Z,8.98
2023-02-19T04:44:41.036Z,8.98
2023-02-19T04:45:41.274Z,8.98
2023-02-19T04:46:43.180Z,8.98
2023-02-19T04:47:41.082Z,8.96
2023-02-19T04:48:41.278Z,8.96
2023-02-19T04:49:41.265Z,8.94
2023-02-19T04:50:41.018Z,8.93
2023-02-19T04:51:41.006Z,8.94
2023-02-19T04:52:41.143Z,8.94
2023-02-19T04:53:41.004Z,8.93
2023-02-19T04:54:41.137Z,8.93
2023-02-19T04:55:41.014Z,8.9
2023-02-19T04:56:41.225Z,8.91
2023-02-19T04:57:41.881Z,8.9
2023-02-19T04:58:41.029Z,8.91
2023-02-19T04:59:40.996Z,8.89
2023-02-19T05:00:41.086Z,8.89
2023-02-19T05:01:41.308Z,8.89
2023-02-19T05:02:41.150Z,8.9
2023-02-19T05:03:41.316Z,8.9
2023-02-19T05:04:41.210Z,8.87
2023-02-19T05:05:41.006Z,8.9
2023-02-19T05:06:41.252Z,8.9
2023-02-19T05:07:41.019Z,8.9
2023-02-19T05:08:41.048Z,8.91
2023-02-19T05:09:40.999Z,8.91
2023-02-19T05:10:41.004Z,8.9
2023-02-19T05:11:41.004Z,8.9
2023-02-19T05:12:41.017Z,8.89
2023-02-19T05:13:41.047Z,8.9
2023-02-19T05:14:41.031Z,8.91
2023-02-19T05:15:41.078Z,8.93
2023-02-19T05:16:41.030Z,8.93
2023-02-19T05:17:41.032Z,8.95
2023-02-19T05:18:41.241Z,8.95
2023-02-19T05:19:41.008Z,8.96
2023-02-19T05:20:41.015Z,8.95
2023-02-19T05:21:41.014Z,8.95
2023-02-19T05:22:41.028Z,8.94
2023-02-19T05:23:41.037Z,8.93
2023-02-19T05:24:41.004Z,8.93
2023-02-19T05:25:41.263Z,8.91
2023-02-19T05:26:41.007Z,8.91
2023-02-19T05:27:41.017Z,8.93
2023-02-19T05:28:40.996Z,8.94
2023-02-19T05:29:41.002Z,8.94
2023-02-19T05:30:41.004Z,8.97
2023-02-19T05:31:41.211Z,8.98
2023-02-19T05:32:41.026Z,8.98
2023-02-19T05:33:41.009Z,8.97
2023-02-19T05:34:41.004Z,8.98
2023-02-19T05:35:41.231Z,8.98
2023-02-19T05:36:41.005Z,8.99
2023-02-19T05:37:41.041Z,8.97
2023-02-19T05:38:41.013Z,8.98
2023-02-19T05:39:41.011Z,8.98
2023-02-19T05:40:41.003Z,8.95
2023-02-19T05:41:40.998Z,8.94
2023-02-19T05:42:41.018Z,8.92
2023-02-19T05:43:41.000Z,8.91
2023-02-19T05:44:41.001Z,8.91
2023-02-19T05:45:41.006Z,8.92
2023-02-19T05:46:41.036Z,8.92
2023-02-19T05:47:41.009Z,8.92
2023-02-19T05:48:41.005Z,8.91
2023-02-19T05:49:40.996Z,8.9
2023-02-19T05:50:40.998Z,8.89
2023-02-19T05:51:40.999Z,8.88
2023-02-19T05:52:41.091Z,8.87
2023-02-19T05:53:41.018Z,8.86
2023-02-19T05:54:41.007Z,8.85
2023-02-19T05:55:41.004Z,8.85
2023-02-19T05:56:41.022Z,8.86
2023-02-19T05:57:44.122Z,8.86
2023-02-19T05:58:41.001Z,8.87
2023-02-19T05:59:40.998Z,8.87
2023-02-19T06:00:41.004Z,8.87
2023-02-19T06:01:41.001Z,8.87
2023-02-19T06:02:41.064Z,8.86
2023-02-19T06:03:41.036Z,8.85
2023-02-19T06:04:41.109Z,8.84
2023-02-19T06:05:41.005Z,8.83
2023-02-19T06:06:41.017Z,8.82
2023-02-19T06:07:41.011Z,8.82
2023-02-19T06:08:40.995Z,8.8
2023-02-19T06:09:41.000Z,8.79
2023-02-19T06:10:40.996Z,8.81
2023-02-19T06:11:40.999Z,8.82
2023-02-19T06:12:41.006Z,8.79
2023-02-19T06:13:41.016Z,8.77
2023-02-19T06:14:41.017Z,8.77
2023-02-19T06:15:41.004Z,8.76
2023-02-19T06:16:41.021Z,8.77
2023-02-19T06:17:41.006Z,8.76
2023-02-19T06:18:41.006Z,8.77
2023-02-19T06:19:41.001Z,8.76
2023-02-19T06:20:41.057Z,8.76
2023-02-19T06:21:41.028Z,8.75
2023-02-19T06:22:41.006Z,8.74
2023-02-19T06:23:41.008Z,8.74
2023-02-19T06:24:41.014Z,8.73
2023-02-19T06:25:41.000Z,8.73
2023-02-19T06:26:41.002Z,8.71
2023-02-19T06:27:41.004Z,8.71
2023-02-19T06:28:41.002Z,8.7
2023-02-19T06:29:41.005Z,8.69
2023-02-19T06:30:40.999Z,8.7
2023-02-19T06:31:41.073Z,8.69
2023-02-19T06:32:41.017Z,8.68
2023-02-19T06:33:41.009Z,8.67
2023-02-19T06:34:41.020Z,8.66
2023-02-19T06:35:41.029Z,8.66
2023-02-19T06:36:41.004Z,8.65
2023-02-19T06:37:41.006Z,8.65
2023-02-19T06:38:41.027Z,8.64
2023-02-19T06:39:41.021Z,8.63
2023-02-19T06:40:41.005Z,8.61
2023-02-19T06:41:41.011Z,8.62
2023-02-19T06:42:41.033Z,8.61
2023-02-19T06:43:41.013Z,8.6
2023-02-19T06:44:41.010Z,8.59
2023-02-19T06:45:41.209Z,8.58
2023-02-19T06:46:41.557Z,8.56
2023-02-19T06:47:41.242Z,8.57
2023-02-19T06:48:41.083Z,8.55
2023-02-19T06:49:41.542Z,8.55
2023-02-19T06:50:41.716Z,8.53
2023-02-19T06:51:41.267Z,8.53
2023-02-19T06:52:41.036Z,8.53
2023-02-19T06:53:41.012Z,8.53
2023-02-19T06:54:41.235Z,8.53
2023-02-19T06:55:41.007Z,8.52
2023-02-19T06:56:41.026Z,8.52
2023-02-19T06:57:41.039Z,8.52
2023-02-19T06:58:41.009Z,8.53
2023-02-19T06:59:41.014Z,8.53
2023-02-19T07:00:41.033Z,8.52
2023-02-19T07:01:41.007Z,8.52
2023-02-19T07:02:41.011Z,8.52
2023-02-19T07:03:41.326Z,8.52
2023-02-19T07:04:41.003Z,8.52
2023-02-19T07:05:41.004Z,8.51
2023-02-19T07:06:41.004Z,8.52
2023-02-19T07:07:41.007Z,8.51
2023-02-19T07:08:41.007Z,8.51
2023-02-19T07:09:41.017Z,8.51
2023-02-19T07:10:41.040Z,8.5
2023-02-19T07:11:41.004Z,8.51
2023-02-19T07:12:41.009Z,8.52
2023-02-19T07:13:41.008Z,8.53
2023-02-19T07:14:41.012Z,8.55
2023-02-19T07:15:41.009Z,8.55
2023-02-19T07:16:41.106Z,8.55
2023-02-19T07:17:41.012Z,8.55
2023-02-19T07:18:41.005Z,8.54
2023-02-19T07:19:41.007Z,8.55
2023-02-19T07:20:41.006Z,8.54
2023-02-19T07:21:41.015Z,8.54
2023-02-19T07:22:41.011Z,8.53
2023-02-19T07:23:41.004Z,8.54
2023-02-19T07:24:41.003Z,8.53
2023-02-19T07:25:41.005Z,8.53
2023-02-19T07:26:41.007Z,8.53
2023-02-19T07:27:41.003Z,8.52
2023-02-19T07:28:41.003Z,8.53
2023-02-19T07:29:41.004Z,8.53
2023-02-19T07:30:41.101Z,8.53
2023-02-19T07:31:41.047Z,8.53
2023-02-19T07:32:41.040Z,8.55
2023-02-19T07:33:41.001Z,8.55
2023-02-19T07:34:41.016Z,8.54
2023-02-19T07:35:40.996Z,8.53
2023-02-19T07:36:40.998Z,8.53
2023-02-19T07:37:41.020Z,8.52
2023-02-19T07:38:41.008Z,8.51
2023-02-19T07:39:41.002Z,8.51
2023-02-19T07:40:41.010Z,8.51
2023-02-19T07:41:41.007Z,8.52
2023-02-19T07:42:41.033Z,8.51
2023-02-19T07:43:41.014Z,8.51
2023-02-19T07:44:41.107Z,8.5
2023-02-19T07:45:41.075Z,8.5
2023-02-19T07:46:41.020Z,8.5
2023-02-19T07:47:41.021Z,8.5
2023-02-19T07:48:41.009Z,8.5
2023-02-19T07:49:41.014Z,8.5
2023-02-19T07:50:41.018Z,8.5
2023-02-19T07:51:41.026Z,8.5
2023-02-19T07:52:41.015Z,8.5
2023-02-19T07:53:41.007Z,8.5
2023-02-19T07:54:41.013Z,8.5
2023-02-19T07:55:41.012Z,8.5
2023-02-19T07:56:41.014Z,8.49
2023-02-19T07:57:41.009Z,8.48
2023-02-19T07:58:41.103Z,8.48
2023-02-19T07:59:41.008Z,8.49
2023-02-19T08:00:41.003Z,8.49
2023-02-19T08:01:41.027Z,8.5
2023-02-19T08:02:41.062Z,8.5
2023-02-19T08:03:41.037Z,8.5
2023-02-19T08:04:41.007Z,8.5
2023-02-19T08:05:41.013Z,8.49
2023-02-19T08:06:41.143Z,8.49
2023-02-19T08:07:41.012Z,8.49
2023-02-19T08:08:41.013Z,8.49
2023-02-19T08:09:41.009Z,8.49
2023-02-19T08:10:40.999Z,8.49
2023-02-19T08:11:41.045Z,8.5
2023-02-19T08:12:41.014Z,8.5
2023-02-19T08:13:41.266Z,8.5
2023-02-19T08:14:41.344Z,8.5
2023-02-19T08:15:41.322Z,8.51
2023-02-19T08:16:43.533Z,8.51
2023-02-19T08:17:41.095Z,8.52
2023-02-19T08:18:41.351Z,8.53
2023-02-19T08:19:41.005Z,8.54
2023-02-19T08:20:41.210Z,8.54
2023-02-19T08:21:41.015Z,8.55
2023-02-19T08:22:41.286Z,8.54
2023-02-19T08:23:41.011Z,8.56
2023-02-19T08:24:41.013Z,8.56
2023-02-19T08:25:41.167Z,8.58
2023-02-19T08:26:41.009Z,8.59
2023-02-19T08:27:41.100Z,8.6
2023-02-19T08:28:41.001Z,8.61
2023-02-19T08:29:41.125Z,8.62
2023-02-19T08:30:41.151Z,8.62
2023-02-19T08:31:41.275Z,8.62
2023-02-19T08:32:41.018Z,8.62
2023-02-19T08:33:41.064Z,8.61
2023-02-19T08:34:41.052Z,8.59
2023-02-19T08:35:41.258Z,8.59
2023-02-19T08:36:41.041Z,8.58
2023-02-19T08:37:41.176Z,8.56
2023-02-19T08:38:41.421Z,8.55
2023-02-19T08:39:41.218Z,8.55
2023-02-19T08:40:41.505Z,8.55
2023-02-19T08:41:41.703Z,8.57
2023-02-19T08:42:41.014Z,8.6
2023-02-19T08:43:40.999Z,8.63
2023-02-19T08:44:41.046Z,8.67
2023-02-19T08:45:41.024Z,8.7
2023-02-19T08:46:41.001Z,8.7
2023-02-19T08:47:41.048Z,8.72
2023-02-19T08:48:41.017Z,8.74
2023-02-19T08:49:41.027Z,8.77
2023-02-19T08:50:41.018Z,8.79
2023-02-19T08:51:41.010Z,8.82
2023-02-19T08:52:41.032Z,8.84
2023-02-19T08:53:41.116Z,8.86
2023-02-19T08:54:41.003Z,8.89
2023-02-19T08:55:41.013Z,8.89
2023-02-19T08:56:41.004Z,8.91
2023-02-19T08:57:41.165Z,8.94
2023-02-19T08:58:41.308Z,8.96
2023-02-19T08:59:41.270Z,8.97
2023-02-19T09:00:41.003Z,8.96
2023-02-19T09:01:41.292Z,8.97
2023-02-19T09:02:41.005Z,8.97
2023-02-19T09:03:41.054Z,8.95
2023-02-19T09:04:41.007Z,8.94
2023-02-19T09:05:41.002Z,8.96
2023-02-19T09:06:41.419Z,8.98
2023-02-19T09:07:41.028Z,8.97
2023-02-19T09:08:41.062Z,8.99
2023-02-19T09:09:40.999Z,9.03
2023-02-19T09:10:41.372Z,9.08
2023-02-19T09:11:41.011Z,9.12
2023-02-19T09:12:41.044Z,9.16
2023-02-19T09:13:40.995Z,9.17
2023-02-19T09:14:40.997Z,9.17
2023-02-19T09:15:41.022Z,9.17
2023-02-19T09:16:41.003Z,9.17
2023-02-19T09:17:41.016Z,9.17
2023-02-19T09:18:41.036Z,9.12
2023-02-19T09:19:41.004Z,9.08
2023-02-19T09:20:41.196Z,9.06
2023-02-19T09:21:41.021Z,9.05
2023-02-19T09:22:41.006Z,9.03
2023-02-19T09:23:41.011Z,8.99
2023-02-19T09:24:41.019Z,8.96
2023-02-19T09:25:41.008Z,8.91
2023-02-19T09:26:41.009Z,8.91
2023-02-19T09:27:41.035Z,8.91
2023-02-19T09:28:41.007Z,8.9
2023-02-19T09:29:41.014Z,8.9
2023-02-19T09:30:41.118Z,8.9
2023-02-19T09:31:41.100Z,8.9
2023-02-19T09:32:41.020Z,8.91
2023-02-19T09:33:41.007Z,8.92
2023-02-19T09:34:41.014Z,8.93
2023-02-19T09:35:41.016Z,8.95
2023-02-19T09:36:41.019Z,8.96
2023-02-19T09:37:41.135Z,8.99
2023-02-19T09:38:41.005Z,9.02
2023-02-19T09:39:41.011Z,9.05
2023-02-19T09:40:41.011Z,9.09
2023-02-19T09:41:41.008Z,9.11
2023-02-19T09:42:41.037Z,9.14
2023-02-19T09:43:41.006Z,9.15
2023-02-19T09:44:41.013Z,9.17
2023-02-19T09:45:41.014Z,9.2
2023-02-19T09:46:41.011Z,9.24
2023-02-19T09:47:41.031Z,9.25
2023-02-19T09:48:41.021Z,9.22
2023-02-19T09:49:41.011Z,9.18
2023-02-19T09:50:41.021Z,9.07
2023-02-19T09:51:41.015Z,8.17
2023-02-19T09:52:41.024Z,8.07
2023-02-19T09:53:41.001Z,7.93
2023-02-19T09:54:41.010Z,7.69
2023-02-19T09:55:41.016Z,7.48
2023-02-19T09:56:41.004Z,7.3
2023-02-19T09:57:41.013Z,7.11
2023-02-19T09:58:41.019Z,6.99
2023-02-19T09:59:41.037Z,6.99
2023-02-19T10:00:41.003Z,6.96
2023-02-19T10:01:41.065Z,6.83
2023-02-19T10:02:41.029Z,6.74
2023-02-19T10:03:41.047Z,6.74
2023-02-19T10:04:41.007Z,6.72
2023-02-19T10:05:41.004Z,6.65
2023-02-19T10:06:41.010Z,6.53
2023-02-19T10:07:41.020Z,6.55
2023-02-19T10:08:41.001Z,6.51
2023-02-19T10:09:41.002Z,6.49
2023-02-19T10:10:41.013Z,6.39
2023-02-19T10:11:40.997Z,6.38
2023-02-19T10:12:41.017Z,6.31
2023-02-19T10:13:41.004Z,6.3
2023-02-19T10:14:41.001Z,6.27
2023-02-19T10:15:41.018Z,6.25
2023-02-19T10:16:41.003Z,6.22
2023-02-19T10:17:41.153Z,6.22
2023-02-19T10:18:41.031Z,6.23
2023-02-19T10:19:41.015Z,6.25
2023-02-19T10:20:41.186Z,6.28
2023-02-19T10:21:41.505Z,6.25
2023-02-19T10:22:41.225Z,6.25
2023-02-19T10:23:41.000Z,6.24
2023-02-19T10:24:41.273Z,6.26
2023-02-19T10:25:41.588Z,6.25
2023-02-19T10:26:41.789Z,6.3
2023-02-19T10:27:41.006Z,6.28
2023-02-19T10:28:41.089Z,6.28
2023-02-19T10:29:41.278Z,6.3
2023-02-19T10:30:41.005Z,6.36
2023-02-19T10:31:41.103Z,6.33
2023-02-19T10:32:41.021Z,6.35
2023-02-19T10:33:41.002Z,6.39
2023-02-19T10:34:40.996Z,6.42
2023-02-19T10:35:41.044Z,6.42
2023-02-19T10:36:41.002Z,6.42
2023-02-19T10:37:41.022Z,6.46
2023-02-19T10:38:41.002Z,6.44
2023-02-19T10:39:41.004Z,6.44
2023-02-19T10:40:41.012Z,6.48
2023-02-19T10:41:44.438Z,6.52
2023-02-19T10:42:41.027Z,6.36
2023-02-19T10:43:41.001Z,6.35
2023-02-19T10:44:41.012Z,6.34
2023-02-19T10:45:41.304Z,6.35
2023-02-19T10:46:41.073Z,6.37
2023-02-19T10:47:41.033Z,6.37
2023-02-19T10:48:41.012Z,6.41
2023-02-19T10:49:41.005Z,6.43
2023-02-19T10:50:41.018Z,6.46
2023-02-19T10:51:41.009Z,6.47
2023-02-19T10:52:41.016Z,6.53
2023-02-19T10:53:41.004Z,6.58
2023-02-19T10:54:41.014Z,6.59
2023-02-19T10:55:41.008Z,6.62
2023-02-19T10:56:41.004Z,6.63
2023-02-19T10:57:41.005Z,6.57
2023-02-19T10:58:41.004Z,6.58
2023-02-19T10:59:41.117Z,6.59
2023-02-19T11:00:41.000Z,6.58
2023-02-19T11:01:41.015Z,6.57
2023-02-19T11:02:40.996Z,6.55
2023-02-19T11:03:41.015Z,6.49
2023-02-19T11:04:41.030Z,6.47
2023-02-19T11:05:41.000Z,6.46
2023-02-19T11:06:41.008Z,6.47
2023-02-19T11:07:41.009Z,6.52
2023-02-19T11:08:41.009Z,6.55
2023-02-19T11:09:40.999Z,6.59
2023-02-19T11:10:41.000Z,6.61
2023-02-19T11:11:41.106Z,6.61
2023-02-19T11:12:41.017Z,6.59
2023-02-19T11:13:40.997Z,6.61
2023-02-19T11:14:40.999Z,6.66
2023-02-19T11:15:41.019Z,6.71
2023-02-19T11:16:41.002Z,6.76
2023-02-19T11:17:41.014Z,6.8
2023-02-19T11:18:40.999Z,6.84
2023-02-19T11:19:41.039Z,6.87
2023-02-19T11:20:41.003Z,6.88
2023-02-19T11:21:41.002Z,6.89
2023-02-19T11:22:41.004Z,6.89
2023-02-19T11:23:41.034Z,6.84
2023-02-19T11:24:41.011Z,6.75
2023-02-19T11:25:41.108Z,6.74
2023-02-19T11:26:41.033Z,6.77
2023-02-19T11:27:41.092Z,6.82
2023-02-19T11:28:40.998Z,6.86
2023-02-19T11:29:40.999Z,6.89
2023-02-19T11:30:41.082Z,6.87
2023-02-19T11:31:41.075Z,6.91
2023-02-19T11:32:41.006Z,6.88
2023-02-19T11:33:41.002Z,6.88
2023-02-19T11:34:41.002Z,6.89
2023-02-19T11:35:41.012Z,6.9
2023-02-19T11:36:41.001Z,6.88
2023-02-19T11:37:41.265Z,6.88
2023-02-19T11:38:41.020Z,6.88
2023-02-19T11:39:41.070Z,6.87
2023-02-19T11:40:41.101Z,6.88
2023-02-19T11:41:41.003Z,6.86
2023-02-19T11:42:41.004Z,6.85
2023-02-19T11:43:41.006Z,6.83
2023-02-19T11:44:40.999Z,6.82
2023-02-19T11:45:41.003Z,6.84
2023-02-19T11:46:41.051Z,6.87
2023-02-19T11:47:41.227Z,6.9
2023-02-19T11:48:41.482Z,6.84
2023-02-19T11:49:40.624Z,6.82
2023-02-19T11:50:40.943Z,6.82
2023-02-19T11:51:41.314Z,6.8
2023-02-19T11:52:41.447Z,6.81
2023-02-19T11:53:41.063Z,6.84
2023-02-19T11:54:41.410Z,6.85
2023-02-19T11:55:41.238Z,6.89
2023-02-19T11:56:41.022Z,6.94
2023-02-19T11:57:41.023Z,6.99
2023-02-19T11:58:41.013Z,7.04
2023-02-19T11:59:41.181Z,7.04
2023-02-19T12:00:41.173Z,7.08
2023-02-19T12:01:41.098Z,7.13
2023-02-19T12:02:41.161Z,7.15
2023-02-19T12:03:41.014Z,7.18
2023-02-19T12:04:41.274Z,7.18
2023-02-19T12:05:41.486Z,7.22
2023-02-19T12:06:41.228Z,7.23
2023-02-19T12:07:41.026Z,7.2
2023-02-19T12:08:41.254Z,7.17
2023-02-19T12:09:41.430Z,7.21
2023-02-19T12:10:41.144Z,7.24
2023-02-19T12:11:41.336Z,7.26
2023-02-19T12:12:41.008Z,7.3
2023-02-19T12:13:41.124Z,7.31
2023-02-19T12:14:41.025Z,7.28
2023-02-19T12:15:41.159Z,7.25
2023-02-19T12:16:41.043Z,7.19
2023-02-19T12:17:40.996Z,7.15
2023-02-19T12:18:41.000Z,7.15
2023-02-19T12:19:41.043Z,7.16
2023-02-19T12:20:41.001Z,7.15
2023-02-19T12:21:41.001Z,7.17
2023-02-19T12:22:41.006Z,7.17
2023-02-19T12:23:41.006Z,7.17
2023-02-19T12:24:41.035Z,7.18
2023-02-19T12:25:41.004Z,7.19
2023-02-19T12:26:41.292Z,7.21
2023-02-19T12:27:41.004Z,7.25
2023-02-19T12:28:41.011Z,7.21
2023-02-19T12:29:41.023Z,7.24
2023-02-19T12:30:41.072Z,7.23
2023-02-19T12:31:41.054Z,7.26
2023-02-19T12:32:40.997Z,7.32
2023-02-19T12:33:41.012Z,7.33
2023-02-19T12:34:41.003Z,7.31
2023-02-19T12:35:41.020Z,7.31
2023-02-19T12:36:40.997Z,7.33
2023-02-19T12:37:41.011Z,7.28
2023-02-19T12:38:41.011Z,7.29
2023-02-19T12:39:41.054Z,7.32
2023-02-19T12:40:41.047Z,7.26
2023-02-19T12:41:40.997Z,7.25
2023-02-19T12:42:41.004Z,7.25
2023-02-19T12:43:41.012Z,7.18
2023-02-19T12:44:41.005Z,7.2
2023-02-19T12:45:41.039Z,7.14
2023-02-19T12:46:40.998Z,7.16
2023-02-19T12:47:41.006Z,7.18
2023-02-19T12:48:41.002Z,7.17
2023-02-19T12:49:41.008Z,7.11
2023-02-19T12:50:40.999Z,7.14
2023-02-19T12:51:41.006Z,7.17
2023-02-19T12:52:41.000Z,7.09
2023-02-19T12:53:41.021Z,7.05
2023-02-19T12:54:41.220Z,7.03
2023-02-19T12:55:41.033Z,7.04
2023-02-19T12:56:41.005Z,6.91
2023-02-19T12:57:41.006Z,6.82
2023-02-19T12:58:41.029Z,6.76
2023-02-19T12:59:41.021Z,6.73
2023-02-19T13:00:41.032Z,6.68
2023-02-19T13:01:41.020Z,6.67
2023-02-19T13:02:41.036Z,6.66
2023-02-19T13:03:40.996Z,6.71
2023-02-19T13:04:41.009Z,6.75
2023-02-19T13:05:41.216Z,6.78
2023-02-19T13:06:41.017Z,6.81
2023-02-19T13:07:41.004Z,6.83
2023-02-19T13:08:57.814Z,6.82
2023-02-19T13:09:41.008Z,6.88
2023-02-19T13:10:41.040Z,6.93
2023-02-19T13:11:41.004Z,6.96
2023-02-19T13:12:41.013Z,6.91
2023-02-19T13:13:41.018Z,6.85
2023-02-19T13:14:40.998Z,6.85
2023-02-19T13:15:41.017Z,6.83
2023-02-19T13:16:41.047Z,6.78
2023-02-19T13:17:41.014Z,6.72
2023-02-19T13:18:41.038Z,6.64
2023-02-19T13:19:41.019Z,6.66
2023-02-19T13:20:41.007Z,6.66